Hillgrove, Washington
Current Conditions -  °F | °C
As of 1:53 PM on Monday 24 Nov 2014 (Local Time) from KSHN Reporting Station
Light Rain Light Rain  
Wind Chill: 46°   Ceiling: 4800
Heat Index: 46°   Visibility: 5mi
Dew Point: 45°   Wind: 0mph
Humidity: 96%   Direction: NA
Pressure: 30.21"   Gusts: NA
Location:  47.0427°N, 123.269°W
Report Text: KSHN 242153Z AUTO 00000KT 5SM -RA BR FEW004 BKN048 OVC060 08/07 A3021 RMK AO2 RAB11 SLP232 P0003 T00780072
Loading
Personal Weather Stations






























Interactive Weather Map New forecast layout! Learn more

10-Day Weather Forecast

Advertisements
Track Severe Weather on mobile